createdAt,value
2022-07-25T00:02:02.691Z,1.60
2022-07-25T00:07:05.104Z,1.80
2022-07-25T00:12:09.027Z,2.10
2022-07-25T00:17:13.517Z,2.87
2022-07-25T00:22:15.639Z,2.10
2022-07-25T00:27:19.517Z,3.33
2022-07-25T00:32:21.544Z,3.47
2022-07-25T00:37:23.739Z,1.60
2022-07-25T00:42:27.305Z,2.37
2022-07-25T00:47:29.453Z,1.73
2022-07-25T00:52:31.458Z,2.07
2022-07-25T00:57:35.101Z,1.37
2022-07-25T01:02:37.317Z,2.67
2022-07-25T01:07:39.979Z,2.00
2022-07-25T01:12:48.584Z,2.33
2022-07-25T01:17:51.503Z,2.53
2022-07-25T01:22:55.582Z,1.77
2022-07-25T01:27:57.946Z,7.10
2022-07-25T01:33:00.159Z,1.83
2022-07-25T01:38:10.070Z,1.63
2022-07-25T01:43:12.377Z,1.60
2022-07-25T01:48:14.399Z,1.90
2022-07-25T01:53:17.781Z,2.03
2022-07-25T01:58:19.528Z,1.80
2022-07-25T02:03:21.662Z,3.83
2022-07-25T02:08:25.498Z,1.70
2022-07-25T02:13:27.994Z,1.93
2022-07-25T02:18:30.084Z,2.23
2022-07-25T02:23:33.585Z,3.40
2022-07-25T02:28:35.923Z,3.67
2022-07-25T02:33:38.430Z,2.63
2022-07-25T02:38:41.997Z,1.53
2022-07-25T02:43:44.154Z,1.90
2022-07-25T02:48:46.449Z,3.87
2022-07-25T02:53:58.542Z,1.53
2022-07-25T02:59:01.319Z,1.70
2022-07-25T03:04:03.666Z,1.93
2022-07-25T03:09:07.407Z,1.90
2022-07-25T03:14:09.951Z,3.43
2022-07-25T03:19:12.249Z,2.07
2022-07-25T03:24:15.693Z,2.70
2022-07-25T03:29:17.951Z,2.30
2022-07-25T03:34:19.695Z,1.90
2022-07-25T03:39:22.985Z,1.60
2022-07-25T03:44:25.990Z,1.57
2022-07-25T03:49:28.043Z,2.33
2022-07-25T03:54:31.526Z,2.30
2022-07-25T03:59:33.674Z,1.90
2022-07-25T04:04:36.514Z,2.53
2022-07-25T04:09:39.600Z,2.00
2022-07-25T04:14:41.722Z,2.60
2022-07-25T04:19:43.435Z,1.80
2022-07-25T04:24:47.469Z,2.77
2022-07-25T04:29:50.031Z,2.00
2022-07-25T04:34:52.094Z,2.20
2022-07-25T04:39:55.654Z,2.67
2022-07-25T04:49:59.419Z,1.83
2022-07-25T04:55:03.071Z,2.03
2022-07-25T05:00:07.873Z,2.28
2022-07-25T05:05:21.191Z,1.88
2022-07-25T05:10:30.353Z,4.28
2022-07-25T05:15:32.426Z,1.75
2022-07-25T05:20:34.150Z,2.17
2022-07-25T05:25:38.541Z,2.08
2022-07-25T05:30:40.804Z,2.00
2022-07-25T05:35:42.848Z,2.55
2022-07-25T05:40:45.893Z,1.70
2022-07-25T05:45:47.891Z,2.22
2022-07-25T05:50:49.946Z,2.78
2022-07-25T05:55:53.505Z,2.40
2022-07-25T06:00:55.616Z,2.40
2022-07-25T06:05:57.370Z,2.70
2022-07-25T06:11:00.635Z,2.08
2022-07-25T06:16:04.176Z,2.35
2022-07-25T06:21:06.635Z,2.30
2022-07-25T06:26:10.777Z,2.85
2022-07-25T06:31:12.949Z,2.42
2022-07-25T06:36:15.068Z,2.95
2022-07-25T06:41:18.565Z,2.72
2022-07-25T06:46:20.891Z,5.50
2022-07-25T06:51:22.720Z,3.30
2022-07-25T06:56:25.974Z,3.85
2022-07-25T07:01:28.031Z,3.08
2022-07-25T07:06:30.528Z,3.05
2022-07-25T07:11:33.922Z,3.42
2022-07-25T07:16:35.829Z,4.03
2022-07-25T07:21:37.786Z,4.30
2022-07-25T07:26:40.819Z,3.95
2022-07-25T07:31:42.853Z,4.78
2022-07-25T07:36:44.666Z,4.15
2022-07-25T07:41:47.753Z,4.10
2022-07-25T07:46:49.596Z,5.10
2022-07-25T07:51:51.694Z,3.70
2022-07-25T07:56:54.783Z,3.75
2022-07-25T08:01:56.551Z,5.43
2022-07-25T08:06:58.380Z,4.65
2022-07-25T08:12:01.465Z,4.70
2022-07-25T08:17:03.214Z,5.97
2022-07-25T08:22:05.231Z,4.50
2022-07-25T08:27:08.316Z,5.15
2022-07-25T08:32:10.279Z,4.30
2022-07-25T08:37:12.502Z,4.60
2022-07-25T08:42:15.882Z,4.75
2022-07-25T08:47:18.100Z,4.78
2022-07-25T08:52:20.173Z,4.60
2022-07-25T08:57:23.545Z,5.57
2022-07-25T09:02:26.882Z,5.15
2022-07-25T09:07:31.179Z,5.07
2022-07-25T09:12:34.596Z,6.05
2022-07-25T09:17:50.093Z,5.00
2022-07-25T09:22:52.126Z,5.43
2022-07-25T09:27:55.520Z,4.95
2022-07-25T09:33:01.085Z,4.70
2022-07-25T09:38:13.331Z,6.18
2022-07-25T09:43:19.457Z,5.30
2022-07-25T09:48:21.175Z,5.43
2022-07-25T09:53:23.195Z,5.40
2022-07-25T09:58:27.050Z,7.05
2022-07-25T10:03:42.536Z,5.78
2022-07-25T10:08:44.616Z,7.20
2022-07-25T10:13:48.227Z,8.98
2022-07-25T10:18:52.440Z,5.55
2022-07-25T10:23:59.248Z,6.25
2022-07-25T10:29:08.691Z,5.63
2022-07-25T10:34:12.181Z,5.18
2022-07-25T10:39:16.153Z,5.30
2022-07-25T10:44:20.118Z,5.30
2022-07-25T10:49:31.944Z,5.20
2022-07-25T10:54:36.241Z,4.90
2022-07-25T10:59:39.643Z,4.95
2022-07-25T11:04:42.053Z,4.65
2022-07-25T11:09:44.481Z,6.20
2022-07-25T11:14:48.033Z,5.82
2022-07-25T11:19:55.369Z,5.38
2022-07-25T11:24:58.394Z,5.57
2022-07-25T11:30:08.287Z,5.97
2022-07-25T11:35:11.221Z,4.90
2022-07-25T11:40:13.576Z,7.43
2022-07-25T11:45:18.655Z,5.03
2022-07-25T11:50:29.889Z,5.15
2022-07-25T11:55:33.557Z,7.28
2022-07-25T12:00:43.536Z,5.32
2022-07-25T12:05:45.810Z,4.68
2022-07-25T12:10:49.130Z,4.68
2022-07-25T12:15:53.246Z,5.60
2022-07-25T12:20:55.437Z,5.00
2022-07-25T12:25:57.543Z,4.88
2022-07-25T12:31:00.634Z,5.30
2022-07-25T12:36:08.073Z,5.63
2022-07-25T12:41:14.608Z,5.13
2022-07-25T12:46:20.664Z,5.50
2022-07-25T12:51:22.427Z,5.15
2022-07-25T12:56:24.298Z,5.70
2022-07-25T13:01:27.766Z,5.43
2022-07-25T13:06:29.569Z,5.53
2022-07-25T13:11:31.774Z,5.43
2022-07-25T13:16:35.227Z,5.10
2022-07-25T13:21:37.141Z,5.03
2022-07-25T13:26:39.088Z,6.28
2022-07-25T13:31:43.230Z,5.22
2022-07-25T13:36:46.933Z,4.88
2022-07-25T13:41:48.935Z,4.80
2022-07-25T13:46:52.001Z,4.70
2022-07-25T13:51:53.708Z,4.93
2022-07-25T13:56:55.936Z,5.07
2022-07-25T14:01:59.445Z,4.95
2022-07-25T14:07:01.660Z,4.65
2022-07-25T14:12:04.177Z,4.55
2022-07-25T14:17:07.355Z,5.10
2022-07-25T14:22:09.169Z,4.95
2022-07-25T14:27:11.208Z,6.60
2022-07-25T14:32:14.738Z,4.90
2022-07-25T14:37:16.806Z,4.78
2022-07-25T14:42:19.876Z,5.03
2022-07-25T14:47:23.526Z,5.47
2022-07-25T14:52:28.999Z,5.13
2022-07-25T14:57:30.743Z,7.55
2022-07-25T15:02:33.895Z,4.68
2022-07-25T15:07:37.358Z,4.63
2022-07-25T15:12:39.117Z,6.10
2022-07-25T15:17:42.508Z,4.68
2022-07-25T15:22:44.257Z,4.68
2022-07-25T15:27:46.462Z,4.35
2022-07-25T15:32:49.881Z,4.43
2022-07-25T15:37:52.403Z,5.03
2022-07-25T15:42:54.293Z,4.78
2022-07-25T15:47:59.256Z,4.10
2022-07-25T15:53:00.986Z,4.57
2022-07-25T15:58:03.421Z,5.28
2022-07-25T16:03:06.792Z,5.35
2022-07-25T16:08:08.650Z,4.63
2022-07-25T16:13:10.548Z,4.60
2022-07-25T16:18:13.662Z,4.68
2022-07-25T16:23:15.416Z,4.50
2022-07-25T16:28:17.303Z,4.75
2022-07-25T16:33:20.481Z,4.97
2022-07-25T16:38:22.547Z,4.57
2022-07-25T16:43:24.702Z,4.93
2022-07-25T16:48:28.889Z,4.40
2022-07-25T16:53:31.165Z,5.90
2022-07-25T16:58:34.510Z,4.93
2022-07-25T17:03:37.953Z,5.57
2022-07-25T17:08:39.663Z,7.95
2022-07-25T17:13:41.726Z,5.47
2022-07-25T17:18:44.957Z,4.45
2022-07-25T17:23:47.003Z,4.85
2022-07-25T17:28:48.791Z,5.82
2022-07-25T17:33:52.214Z,5.00
2022-07-25T17:38:54.957Z,8.07
2022-07-25T17:43:56.677Z,3.75
2022-07-25T17:49:00.409Z,5.35
2022-07-25T17:54:02.216Z,6.03
2022-07-25T17:59:03.947Z,9.35
2022-07-25T18:04:07.567Z,6.82
2022-07-25T18:09:09.676Z,7.82
2022-07-25T18:14:11.645Z,6.53
2022-07-25T18:19:15.103Z,6.40
2022-07-25T18:24:16.935Z,8.38
2022-07-25T18:29:18.787Z,7.00
2022-07-25T18:34:21.874Z,7.75
2022-07-25T18:39:23.914Z,10.45
2022-07-25T18:44:25.661Z,5.18
2022-07-25T18:49:29.303Z,6.57
2022-07-25T18:54:31.025Z,6.07
2022-07-25T18:59:32.846Z,6.15
2022-07-25T19:04:35.961Z,5.88
2022-07-25T19:09:38.092Z,4.05
2022-07-25T19:14:40.110Z,6.00
2022-07-25T19:19:43.559Z,4.40
2022-07-25T19:24:45.357Z,4.57
2022-07-25T19:29:47.444Z,4.95
2022-07-25T19:34:51.666Z,5.13
2022-07-25T19:39:53.732Z,6.82
2022-07-25T19:44:55.687Z,5.13
2022-07-25T19:49:58.720Z,5.85
2022-07-25T19:55:00.427Z,5.25
2022-07-25T20:00:02.293Z,4.90
2022-07-25T20:05:05.655Z,5.65
2022-07-25T20:10:08.924Z,7.22
2022-07-25T20:15:11.124Z,3.78
2022-07-25T20:20:14.249Z,5.72
2022-07-25T20:25:16.186Z,7.80
2022-07-25T20:30:18.094Z,5.65
2022-07-25T20:35:21.138Z,8.93
2022-07-25T20:40:23.066Z,8.15
2022-07-25T20:45:25.190Z,8.68
2022-07-25T20:50:28.805Z,9.98
2022-07-25T20:55:30.803Z,6.95
2022-07-25T21:00:32.939Z,8.27
2022-07-25T21:05:36.809Z,9.82
2022-07-25T21:10:38.833Z,8.77
2022-07-25T21:15:40.609Z,8.77
2022-07-25T21:20:45.652Z,9.25
2022-07-25T21:25:47.775Z,9.55
2022-07-25T21:30:49.747Z,7.82
2022-07-25T21:35:53.758Z,11.40
2022-07-25T21:40:56.274Z,7.97
2022-07-25T21:45:58.371Z,9.07
2022-07-25T21:51:01.516Z,10.23
2022-07-25T21:56:09.481Z,8.43
2022-07-25T22:01:11.891Z,7.80
2022-07-25T22:06:15.391Z,9.13
2022-07-25T22:11:38.694Z,10.97
2022-07-25T22:16:39.442Z,11.03
2022-07-25T22:21:42.967Z,7.97
2022-07-25T22:26:45.313Z,9.30
2022-07-25T22:31:47.471Z,8.70
2022-07-25T22:36:51.042Z,10.40
2022-07-25T22:41:53.077Z,18.40
2022-07-25T22:46:55.128Z,7.70
2022-07-25T22:51:58.610Z,7.37
2022-07-25T22:57:01.038Z,10.03
2022-07-25T23:02:03.068Z,8.63
2022-07-25T23:07:06.583Z,5.93
2022-07-25T23:12:09.219Z,10.03
2022-07-25T23:17:11.383Z,6.80
2022-07-25T23:22:15.046Z,5.67
2022-07-25T23:27:16.971Z,5.67
2022-07-25T23:32:19.555Z,5.37
2022-07-25T23:37:23.016Z,8.50
2022-07-25T23:42:25.260Z,8.90
2022-07-25T23:47:39.220Z,7.97
2022-07-25T23:52:43.391Z,6.13
2022-07-25T23:57:45.178Z,7.23
